createdAt,value
2023-02-13T00:01:52.437Z,12.10
2023-02-13T00:04:18.749Z,10.13
2023-02-13T00:06:47.910Z,7.70
2023-02-13T00:09:14.514Z,7.55
2023-02-13T00:11:40.824Z,6.53
2023-02-13T00:14:07.358Z,5.45
2023-02-13T00:16:34.020Z,4.00
2023-02-13T00:19:00.406Z,4.35
2023-02-13T00:21:26.821Z,5.65
2023-02-13T00:23:53.275Z,5.82
2023-02-13T00:26:19.664Z,5.20
2023-02-13T00:28:46.261Z,5.97
2023-02-13T00:31:14.095Z,8.18
2023-02-13T00:33:40.862Z,6.78
2023-02-13T00:36:08.879Z,5.47
2023-02-13T00:38:35.844Z,10.13
2023-02-13T00:41:02.573Z,9.98
2023-02-13T00:43:29.136Z,5.88
2023-02-13T00:45:55.490Z,6.00
2023-02-13T00:48:21.900Z,6.85
2023-02-13T00:50:48.272Z,8.23
2023-02-13T00:53:14.650Z,8.55
2023-02-13T00:55:40.991Z,13.50
2023-02-13T00:58:07.578Z,12.73
2023-02-13T01:00:34.104Z,10.07
2023-02-13T01:03:00.610Z,7.80
2023-02-13T01:05:28.431Z,7.15
2023-02-13T01:07:54.943Z,8.43
2023-02-13T01:10:21.460Z,7.15
2023-02-13T01:12:47.741Z,6.25
2023-02-13T01:15:14.115Z,6.07
2023-02-13T01:17:40.594Z,5.78
2023-02-13T01:20:08.102Z,5.90
2023-02-13T01:22:34.450Z,10.55
2023-02-13T01:25:00.800Z,9.60
2023-02-13T01:27:27.836Z,11.52
2023-02-13T01:29:54.287Z,14.63
2023-02-13T01:32:21.179Z,14.63
2023-02-13T01:34:47.500Z,14.18
2023-02-13T01:37:14.416Z,12.50
2023-02-13T01:39:40.773Z,16.27
2023-02-13T01:42:15.351Z,19.63
2023-02-13T01:44:53.935Z,20.05
2023-02-13T01:47:28.178Z,20.02
2023-02-13T01:49:59.714Z,20.58
2023-02-13T01:52:26.086Z,16.60
2023-02-13T01:54:53.231Z,17.25
2023-02-13T01:57:22.276Z,19.40
2023-02-13T01:59:48.558Z,22.20
2023-02-13T02:02:15.162Z,18.55
2023-02-13T02:04:42.457Z,13.30
2023-02-13T02:07:10.825Z,17.77
2023-02-13T02:09:39.335Z,16.88
2023-02-13T02:12:21.164Z,14.55
2023-02-13T02:14:47.456Z,17.40
2023-02-13T02:17:14.251Z,14.32
2023-02-13T02:19:59.435Z,15.88
2023-02-13T02:22:34.709Z,17.67
2023-02-13T02:25:09.869Z,16.98
2023-02-13T02:27:55.001Z,13.88
2023-02-13T02:30:44.393Z,10.35
2023-02-13T02:33:21.697Z,14.25
2023-02-13T02:36:02.159Z,13.63
2023-02-13T02:38:37.286Z,17.83
2023-02-13T02:41:41.239Z,13.43
2023-02-13T02:44:10.770Z,12.38
2023-02-13T02:47:07.378Z,15.52
2023-02-13T02:49:54.464Z,12.25
2023-02-13T02:52:26.195Z,15.40
2023-02-13T02:55:07.519Z,17.92
2023-02-13T02:57:56.550Z,11.47
2023-02-13T03:00:43.244Z,10.82
2023-02-13T03:03:33.151Z,14.32
2023-02-13T03:06:10.703Z,13.23
2023-02-13T03:08:56.748Z,11.35
2023-02-13T03:11:42.053Z,10.27
2023-02-13T03:14:11.126Z,13.52
2023-02-13T03:16:56.312Z,16.65
2023-02-13T03:19:52.786Z,14.13
2023-02-13T03:22:32.208Z,14.23
2023-02-13T03:25:04.659Z,10.70
2023-02-13T03:28:12.224Z,12.02
2023-02-13T03:30:53.618Z,8.10
2023-02-13T03:33:23.139Z,11.27
2023-02-13T03:36:08.361Z,11.57
2023-02-13T03:38:42.398Z,12.18
2023-02-13T03:41:19.574Z,9.65
2023-02-13T03:43:52.219Z,9.30
2023-02-13T03:46:19.412Z,11.65
2023-02-13T03:49:04.834Z,10.68
2023-02-13T03:51:35.005Z,14.18
2023-02-13T03:54:04.500Z,11.48
2023-02-13T03:56:50.639Z,18.15
2023-02-13T03:59:20.205Z,14.63
2023-02-13T04:01:50.274Z,16.75
2023-02-13T04:04:25.565Z,13.98
2023-02-13T04:07:07.055Z,13.85
2023-02-13T04:09:35.241Z,14.50
2023-02-13T04:12:08.072Z,11.65
2023-02-13T04:14:48.352Z,12.05
2023-02-13T04:17:21.687Z,9.55
2023-02-13T04:19:48.099Z,6.75
2023-02-13T04:22:14.554Z,8.43
2023-02-13T04:24:40.971Z,9.02
2023-02-13T04:27:07.295Z,8.00
2023-02-13T04:29:33.595Z,7.20
2023-02-13T04:31:59.909Z,6.50
2023-02-13T04:34:26.618Z,5.40
2023-02-13T04:36:52.942Z,4.85
2023-02-13T04:39:19.233Z,2.67
2023-02-13T04:41:45.792Z,2.92
2023-02-13T04:44:12.126Z,1.60
2023-02-13T04:46:38.441Z,3.55
2023-02-13T04:49:04.806Z,3.45
2023-02-13T04:51:31.112Z,4.63
2023-02-13T04:53:57.471Z,6.10
2023-02-13T04:56:23.856Z,7.85
2023-02-13T04:58:50.227Z,6.80
2023-02-13T05:01:17.360Z,5.47
2023-02-13T05:03:43.883Z,7.20
2023-02-13T05:06:10.441Z,5.40
2023-02-13T05:08:36.822Z,5.88
2023-02-13T05:11:03.227Z,4.13
2023-02-13T05:13:29.555Z,3.38
2023-02-13T05:15:55.871Z,8.25
2023-02-13T05:18:22.369Z,6.90
2023-02-13T05:21:08.691Z,4.35
2023-02-13T05:23:35.066Z,4.47
2023-02-13T05:26:01.440Z,3.58
2023-02-13T05:28:46.435Z,7.70
2023-02-13T05:31:12.913Z,3.83
2023-02-13T05:33:39.523Z,4.05
2023-02-13T05:36:06.052Z,5.72
2023-02-13T05:38:32.346Z,7.85
2023-02-13T05:40:59.723Z,5.20
2023-02-13T05:43:26.592Z,4.28
2023-02-13T05:46:00.697Z,4.63
2023-02-13T05:48:27.109Z,8.00
2023-02-13T05:50:53.439Z,9.68
2023-02-13T05:53:19.723Z,10.63
2023-02-13T05:55:46.542Z,8.93
2023-02-13T05:58:12.997Z,9.18
2023-02-13T06:00:39.295Z,12.95
2023-02-13T06:03:05.574Z,9.77
2023-02-13T06:05:31.996Z,10.73
2023-02-13T06:07:58.325Z,6.60
2023-02-13T06:10:24.670Z,8.25
2023-02-13T06:12:51.139Z,5.55
2023-02-13T06:15:17.490Z,4.85
2023-02-13T06:17:43.909Z,6.15
2023-02-13T06:20:10.462Z,9.38
2023-02-13T06:22:36.805Z,9.00
2023-02-13T06:25:03.508Z,4.60
2023-02-13T06:27:29.874Z,4.97
2023-02-13T06:29:56.227Z,4.45
2023-02-13T06:32:22.636Z,4.50
2023-02-13T06:34:48.988Z,2.50
2023-02-13T06:37:15.279Z,2.55
2023-02-13T06:39:42.768Z,2.35
2023-02-13T06:42:09.065Z,3.53
2023-02-13T06:44:35.393Z,2.45
2023-02-13T06:47:01.839Z,3.45
2023-02-13T06:49:28.223Z,3.95
2023-02-13T06:51:54.635Z,5.97
2023-02-13T06:54:21.154Z,3.45
2023-02-13T06:56:47.475Z,3.30
2023-02-13T06:59:13.778Z,3.67
2023-02-13T07:01:40.062Z,3.42
2023-02-13T07:04:06.348Z,3.92
2023-02-13T07:06:33.559Z,3.88
2023-02-13T07:09:01.107Z,2.78
2023-02-13T07:11:27.466Z,2.00
2023-02-13T07:13:53.876Z,2.03
2023-02-13T07:16:20.223Z,8.00
2023-02-13T07:18:46.580Z,8.15
2023-02-13T07:21:12.930Z,8.07
2023-02-13T07:23:39.267Z,6.00
2023-02-13T07:26:05.684Z,4.95
2023-02-13T07:28:32.340Z,5.03
2023-02-13T07:31:03.384Z,4.13
2023-02-13T07:33:29.740Z,4.03
2023-02-13T07:35:56.060Z,4.00
2023-02-13T07:38:22.347Z,3.45
2023-02-13T07:40:48.732Z,4.13
2023-02-13T07:43:15.129Z,4.25
2023-02-13T07:45:41.438Z,6.55
2023-02-13T07:48:07.717Z,12.70
2023-02-13T07:50:34.091Z,8.30
2023-02-13T07:53:01.433Z,5.88
2023-02-13T07:55:28.800Z,4.80
2023-02-13T07:57:55.407Z,4.82
2023-02-13T08:00:22.283Z,5.63
2023-02-13T08:02:48.830Z,6.13
2023-02-13T08:05:15.284Z,8.32
2023-02-13T08:07:41.615Z,8.77
2023-02-13T08:10:27.326Z,9.82
2023-02-13T08:12:54.477Z,9.25
2023-02-13T08:15:20.777Z,9.68
2023-02-13T08:17:47.243Z,10.60
2023-02-13T08:20:13.569Z,9.77
2023-02-13T08:22:40.222Z,9.25
2023-02-13T08:25:07.138Z,10.90
2023-02-13T08:27:33.809Z,7.47
2023-02-13T08:30:01.700Z,8.13
2023-02-13T08:32:28.063Z,6.85
2023-02-13T08:34:54.374Z,7.20
2023-02-13T08:37:20.726Z,10.35
2023-02-13T08:39:47.079Z,5.30
2023-02-13T08:42:15.864Z,6.45
2023-02-13T08:44:42.794Z,3.90
2023-02-13T08:47:09.188Z,3.67
2023-02-13T08:49:35.772Z,6.25
2023-02-13T08:52:02.495Z,4.85
2023-02-13T08:54:28.950Z,5.00
2023-02-13T08:56:56.321Z,4.60
2023-02-13T08:59:23.550Z,5.20
2023-02-13T09:01:49.896Z,8.10
2023-02-13T09:04:18.046Z,7.60
2023-02-13T09:06:44.886Z,9.63
2023-02-13T09:09:11.417Z,8.50
2023-02-13T09:11:37.800Z,7.35
2023-02-13T09:14:04.137Z,6.10
2023-02-13T09:16:30.579Z,6.55
2023-02-13T09:18:57.067Z,7.88
2023-02-13T09:21:23.787Z,7.03
2023-02-13T09:23:51.458Z,6.97
2023-02-13T09:26:19.764Z,8.45
2023-02-13T09:28:47.120Z,9.70
2023-02-13T09:31:17.655Z,8.60
2023-02-13T09:33:45.103Z,12.68
2023-02-13T09:36:19.340Z,10.88
2023-02-13T09:38:46.490Z,9.70
2023-02-13T09:41:12.828Z,7.60
2023-02-13T09:43:59.508Z,7.05
2023-02-13T09:46:29.555Z,10.70
2023-02-13T09:48:56.674Z,10.05
2023-02-13T09:51:25.726Z,7.10
2023-02-13T09:53:54.108Z,7.90
2023-02-13T09:56:39.189Z,5.05
2023-02-13T09:59:28.828Z,5.40
2023-02-13T10:01:57.735Z,9.90
2023-02-13T10:04:33.165Z,8.13
2023-02-13T10:06:59.513Z,8.23
2023-02-13T10:09:30.927Z,10.95
2023-02-13T10:12:16.199Z,7.80
2023-02-13T10:14:45.427Z,6.97
2023-02-13T10:17:14.619Z,10.55
2023-02-13T10:19:42.722Z,11.00
2023-02-13T10:22:15.247Z,8.43
2023-02-13T10:24:44.619Z,8.95
2023-02-13T10:27:24.658Z,12.20
2023-02-13T10:30:06.264Z,10.27
2023-02-13T10:32:32.622Z,9.20
2023-02-13T10:35:00.053Z,11.75
2023-02-13T10:37:28.104Z,9.00
2023-02-13T10:39:54.674Z,10.10
2023-02-13T10:42:27.142Z,8.27
2023-02-13T10:44:56.557Z,8.98
2023-02-13T10:47:41.528Z,9.10
2023-02-13T10:50:26.246Z,10.38
2023-02-13T10:52:58.689Z,8.40
2023-02-13T10:55:25.130Z,10.07
2023-02-13T10:58:02.800Z,9.88
2023-02-13T11:00:35.251Z,9.88
2023-02-13T11:03:01.875Z,8.88
2023-02-13T11:05:38.248Z,9.63
2023-02-13T11:08:13.603Z,7.05
2023-02-13T11:10:40.298Z,8.95
2023-02-13T11:13:17.832Z,9.85
2023-02-13T11:15:55.921Z,7.45
2023-02-13T11:18:23.170Z,7.93
2023-02-13T11:20:58.472Z,6.85
2023-02-13T11:23:30.873Z,6.15
2023-02-13T11:26:00.003Z,4.53
2023-02-13T11:28:28.370Z,7.38
2023-02-13T11:31:08.454Z,7.28
2023-02-13T11:33:34.863Z,5.82
2023-02-13T11:36:06.363Z,7.18
2023-02-13T11:38:32.906Z,7.88
2023-02-13T11:41:10.308Z,6.93
2023-02-13T11:43:50.586Z,7.95
2023-02-13T11:46:19.672Z,6.85
2023-02-13T11:49:06.326Z,4.38
2023-02-13T11:51:40.680Z,5.07
2023-02-13T11:54:07.335Z,5.15
2023-02-13T11:57:03.989Z,7.13
2023-02-13T11:59:33.403Z,7.90
2023-02-13T12:02:04.245Z,5.43
2023-02-13T12:04:30.641Z,6.40
2023-02-13T12:06:59.759Z,7.57
2023-02-13T12:09:27.233Z,7.15
2023-02-13T12:11:55.136Z,5.40
2023-02-13T12:14:23.000Z,6.13
2023-02-13T12:16:51.499Z,8.35
2023-02-13T12:19:21.116Z,6.60
2023-02-13T12:22:01.156Z,5.50
2023-02-13T12:24:33.995Z,4.75
2023-02-13T12:27:29.602Z,3.45
2023-02-13T12:29:56.048Z,4.55
2023-02-13T12:32:33.350Z,2.45
2023-02-13T12:35:25.755Z,4.60
2023-02-13T12:37:56.380Z,4.85
2023-02-13T12:40:38.066Z,6.45
2023-02-13T12:43:07.194Z,6.30
2023-02-13T12:45:37.207Z,6.53
2023-02-13T12:48:03.607Z,4.72
2023-02-13T12:50:38.890Z,4.55
2023-02-13T12:53:14.503Z,5.65
2023-02-13T12:55:49.922Z,3.95
2023-02-13T12:58:16.211Z,3.13
2023-02-13T13:00:45.398Z,2.25
2023-02-13T13:03:11.832Z,3.55
2023-02-13T13:05:45.236Z,2.85
2023-02-13T13:08:20.789Z,2.20
2023-02-13T13:11:10.243Z,2.50
2023-02-13T13:14:12.219Z,1.50
2023-02-13T13:16:38.620Z,6.55
2023-02-13T13:19:25.811Z,5.75
2023-02-13T13:22:05.566Z,3.17
2023-02-13T13:24:50.810Z,2.38
2023-02-13T13:27:27.410Z,2.65
2023-02-13T13:30:13.442Z,3.72
2023-02-13T13:32:40.720Z,3.65
2023-02-13T13:35:12.386Z,4.00
2023-02-13T13:37:45.383Z,2.78
2023-02-13T13:40:28.757Z,9.30
2023-02-13T13:42:59.243Z,3.65
2023-02-13T13:45:34.842Z,3.97
2023-02-13T13:48:19.770Z,2.35
2023-02-13T13:50:46.580Z,1.92
2023-02-13T13:53:20.813Z,1.65
2023-02-13T13:55:47.335Z,4.88
2023-02-13T13:58:32.453Z,2.28
2023-02-13T14:01:10.747Z,3.35
2023-02-13T14:03:37.272Z,2.92
2023-02-13T14:06:05.549Z,1.92
2023-02-13T14:08:40.753Z,3.45
2023-02-13T14:11:24.641Z,2.95
2023-02-13T14:13:51.236Z,2.25
2023-02-13T14:16:36.278Z,2.63
2023-02-13T14:19:03.035Z,3.38
2023-02-13T14:21:29.345Z,2.92
2023-02-13T14:24:00.684Z,2.15
2023-02-13T14:26:40.232Z,2.42
2023-02-13T14:29:09.273Z,3.70
2023-02-13T14:31:40.408Z,4.75
2023-02-13T14:34:06.817Z,4.60
2023-02-13T14:36:34.388Z,5.90
2023-02-13T14:39:16.322Z,4.18
2023-02-13T14:41:43.229Z,5.65
2023-02-13T14:44:21.597Z,4.60
2023-02-13T14:46:49.634Z,5.38
2023-02-13T14:49:22.108Z,4.68
2023-02-13T14:51:51.203Z,4.57
2023-02-13T14:54:22.601Z,3.70
2023-02-13T14:56:50.072Z,5.35
2023-02-13T14:59:21.113Z,4.88
2023-02-13T15:01:52.725Z,5.23
2023-02-13T15:04:23.390Z,3.55
2023-02-13T15:06:50.525Z,4.57
2023-02-13T15:09:35.708Z,3.35
2023-02-13T15:12:02.230Z,3.30
2023-02-13T15:14:32.614Z,6.32
2023-02-13T15:17:06.285Z,3.22
2023-02-13T15:19:34.269Z,2.38
2023-02-13T15:22:01.709Z,7.07
2023-02-13T15:24:31.635Z,4.32
2023-02-13T15:27:03.155Z,3.65
2023-02-13T15:29:40.881Z,2.47
2023-02-13T15:32:17.926Z,1.73
2023-02-13T15:34:46.602Z,2.40
2023-02-13T15:37:23.715Z,3.47
2023-02-13T15:39:50.162Z,4.47
2023-02-13T15:42:16.530Z,3.42
2023-02-13T15:44:44.859Z,4.10
2023-02-13T15:47:26.539Z,3.90
2023-02-13T15:49:53.159Z,3.15
2023-02-13T15:52:25.338Z,2.95
2023-02-13T15:54:53.020Z,3.90
2023-02-13T15:57:20.124Z,3.20
2023-02-13T15:59:47.499Z,3.90
2023-02-13T16:02:22.108Z,2.92
2023-02-13T16:04:51.280Z,3.10
2023-02-13T16:07:17.720Z,2.45
2023-02-13T16:09:44.273Z,3.78
2023-02-13T16:12:24.152Z,2.97
2023-02-13T16:14:59.897Z,2.70
2023-02-13T16:17:28.993Z,2.05
2023-02-13T16:20:28.000Z,1.80
2023-02-13T16:23:00.243Z,1.38
2023-02-13T16:25:26.699Z,0.60
2023-02-13T16:28:01.196Z,0.88
2023-02-13T16:30:27.640Z,1.08
2023-02-13T16:33:14.266Z,1.58
2023-02-13T16:35:43.900Z,1.42
2023-02-13T16:38:29.325Z,2.45
2023-02-13T16:40:57.192Z,3.03
2023-02-13T16:43:42.691Z,3.42
2023-02-13T16:46:12.083Z,2.53
2023-02-13T16:48:38.598Z,2.55
2023-02-13T16:51:04.999Z,1.38
2023-02-13T16:53:33.485Z,1.42
2023-02-13T16:56:06.133Z,1.42
2023-02-13T16:58:32.839Z,0.80
2023-02-13T17:01:01.817Z,1.42
2023-02-13T17:03:28.201Z,1.85
2023-02-13T17:05:55.319Z,1.92
2023-02-13T17:08:21.849Z,1.90
2023-02-13T17:11:08.250Z,2.60
2023-02-13T17:13:34.713Z,2.95
2023-02-13T17:16:01.086Z,3.17
2023-02-13T17:18:27.944Z,1.77
2023-02-13T17:20:54.541Z,3.30
2023-02-13T17:23:22.569Z,3.75
2023-02-13T17:25:51.230Z,4.35
2023-02-13T17:28:19.152Z,3.33
2023-02-13T17:30:46.318Z,6.05
2023-02-13T17:33:21.634Z,4.75
2023-02-13T17:35:48.165Z,4.05
2023-02-13T17:38:14.665Z,3.95
2023-02-13T17:40:41.739Z,3.25
2023-02-13T17:43:09.717Z,3.25
2023-02-13T17:45:36.126Z,2.58
2023-02-13T17:48:02.819Z,2.33
2023-02-13T17:50:30.012Z,1.85
2023-02-13T17:52:56.914Z,2.67
2023-02-13T17:55:24.763Z,2.03
2023-02-13T17:57:51.940Z,3.67
2023-02-13T18:00:20.188Z,7.15
2023-02-13T18:02:47.851Z,7.25
2023-02-13T18:05:15.257Z,9.02
2023-02-13T18:07:43.166Z,9.40
2023-02-13T18:10:20.192Z,5.35
2023-02-13T18:12:47.618Z,3.95
2023-02-13T18:15:13.988Z,3.83
2023-02-13T18:17:40.367Z,3.92
2023-02-13T18:20:09.644Z,2.15
2023-02-13T18:22:36.356Z,2.42
2023-02-13T18:25:03.314Z,2.75
2023-02-13T18:27:29.685Z,4.00
2023-02-13T18:29:56.233Z,6.07
2023-02-13T18:32:22.928Z,3.42
2023-02-13T18:34:50.276Z,3.78
2023-02-13T18:37:17.279Z,6.40
2023-02-13T18:39:43.594Z,4.53
2023-02-13T18:42:11.473Z,4.43
2023-02-13T18:44:37.812Z,3.38
2023-02-13T18:47:04.191Z,3.83
2023-02-13T18:49:30.618Z,3.13
2023-02-13T18:51:56.980Z,4.30
2023-02-13T18:54:23.506Z,7.38
2023-02-13T18:56:49.908Z,6.32
2023-02-13T18:59:16.486Z,6.75
2023-02-13T19:01:43.110Z,5.65
2023-02-13T19:04:10.332Z,5.35
2023-02-13T19:06:39.034Z,3.88
2023-02-13T19:09:05.375Z,4.28
2023-02-13T19:11:34.128Z,3.45
2023-02-13T19:14:01.267Z,2.88
2023-02-13T19:16:28.765Z,2.10
2023-02-13T19:18:56.292Z,3.05
2023-02-13T19:21:23.865Z,1.90
2023-02-13T19:23:51.042Z,2.33
2023-02-13T19:26:19.138Z,1.88
2023-02-13T19:28:46.320Z,2.85
2023-02-13T19:31:17.657Z,1.80
2023-02-13T19:33:44.687Z,1.98
2023-02-13T19:36:12.284Z,1.13
2023-02-13T19:38:39.027Z,1.30
2023-02-13T19:41:05.928Z,0.90
2023-02-13T19:43:32.683Z,0.98
2023-02-13T19:46:05.771Z,0.50
2023-02-13T19:48:32.375Z,2.10
2023-02-13T19:50:59.110Z,1.00
2023-02-13T19:53:25.568Z,0.70
2023-02-13T19:55:58.096Z,2.00
2023-02-13T19:58:24.459Z,2.20
2023-02-13T20:00:50.938Z,2.13
2023-02-13T20:03:17.526Z,2.65
2023-02-13T20:05:43.952Z,2.30
2023-02-13T20:08:10.781Z,1.67
2023-02-13T20:10:37.219Z,1.75
2023-02-13T20:13:04.137Z,2.10
2023-02-13T20:15:32.493Z,1.38
2023-02-13T20:17:58.918Z,1.65
2023-02-13T20:20:27.820Z,1.77
2023-02-13T20:22:54.194Z,3.03
2023-02-13T20:25:22.481Z,2.50
2023-02-13T20:27:48.776Z,2.80
2023-02-13T20:30:15.748Z,3.20
2023-02-13T20:32:42.227Z,2.67
2023-02-13T20:35:08.767Z,2.15
2023-02-13T20:37:35.451Z,2.95
2023-02-13T20:40:01.757Z,3.88
2023-02-13T20:42:28.171Z,3.75
2023-02-13T20:44:54.612Z,3.15
2023-02-13T20:47:21.034Z,2.08
2023-02-13T20:49:47.709Z,2.03
2023-02-13T20:52:14.297Z,1.88
2023-02-13T20:54:40.744Z,1.55
2023-02-13T20:57:07.060Z,1.55
2023-02-13T20:59:33.434Z,1.30
2023-02-13T21:02:00.459Z,1.30
2023-02-13T21:04:29.050Z,0.70
2023-02-13T21:06:55.777Z,0.95
2023-02-13T21:09:22.142Z,0.40
2023-02-13T21:11:48.489Z,0.63
2023-02-13T21:14:14.836Z,1.90
2023-02-13T21:16:41.934Z,1.50
2023-02-13T21:19:10.998Z,2.42
2023-02-13T21:21:37.673Z,3.55
2023-02-13T21:24:08.424Z,2.88
2023-02-13T21:26:35.520Z,2.65
2023-02-13T21:29:01.913Z,3.28
2023-02-13T21:31:30.362Z,3.15
2023-02-13T21:33:57.795Z,3.20
2023-02-13T21:36:24.077Z,1.95
2023-02-13T21:38:50.546Z,3.35
2023-02-13T21:41:18.267Z,3.22
2023-02-13T21:43:47.741Z,3.35
2023-02-13T21:46:20.079Z,2.55
2023-02-13T21:48:47.058Z,1.67
2023-02-13T21:51:17.648Z,2.00
2023-02-13T21:53:45.203Z,2.33
2023-02-13T21:56:13.194Z,2.20
2023-02-13T21:58:40.067Z,1.33
2023-02-13T22:01:20.426Z,1.00
2023-02-13T22:03:51.546Z,0.80
2023-02-13T22:06:19.396Z,0.98
2023-02-13T22:08:45.734Z,1.33
2023-02-13T22:11:12.138Z,0.85
2023-02-13T22:13:41.806Z,0.60
2023-02-13T22:16:12.079Z,0.40
2023-02-13T22:18:39.577Z,0.80
2023-02-13T22:21:13.554Z,0.70
2023-02-13T22:23:40.551Z,0.93
2023-02-13T22:26:06.922Z,1.23
2023-02-13T22:28:33.583Z,0.60
2023-02-13T22:31:00.496Z,0.75
2023-02-13T22:33:27.036Z,0.65
2023-02-13T22:35:53.452Z,0.45
2023-02-13T22:38:19.803Z,0.77
2023-02-13T22:40:46.099Z,0.50
2023-02-13T22:43:12.689Z,0.93
2023-02-13T22:45:39.403Z,1.15
2023-02-13T22:48:06.075Z,1.08
2023-02-13T22:50:33.019Z,2.08
2023-02-13T22:53:00.188Z,2.30
2023-02-13T22:55:26.849Z,1.92
2023-02-13T22:57:55.864Z,2.63
2023-02-13T23:00:22.830Z,2.20
2023-02-13T23:02:52.227Z,2.50
2023-02-13T23:05:18.522Z,2.65
2023-02-13T23:07:45.035Z,2.30
2023-02-13T23:10:11.643Z,2.58
2023-02-13T23:12:39.162Z,2.00
2023-02-13T23:15:07.177Z,2.53
2023-02-13T23:17:52.058Z,2.42
2023-02-13T23:20:18.966Z,5.03
2023-02-13T23:22:45.312Z,3.50
2023-02-13T23:25:11.699Z,3.10
2023-02-13T23:27:38.346Z,3.38
2023-02-13T23:30:05.662Z,3.10
2023-02-13T23:32:32.164Z,2.65
2023-02-13T23:34:58.592Z,2.13
2023-02-13T23:37:25.047Z,1.55
2023-02-13T23:39:51.395Z,3.40
2023-02-13T23:42:17.801Z,3.33
2023-02-13T23:44:44.208Z,4.45
2023-02-13T23:47:10.681Z,4.85
2023-02-13T23:49:37.047Z,7.32
2023-02-13T23:52:03.402Z,7.38
2023-02-13T23:54:29.815Z,4.72
2023-02-13T23:56:56.122Z,3.33
2023-02-13T23:59:23.373Z,2.88
